Aviation Digital Data Service (ADDS)

Output produced by METARs form (0546 UTC 21 January 2019)
found at http://www.aviationweather.gov/metar/data/
 
Forecast for: KLGB (LONG BEACH , CA, US)
Text: KLGB 210538Z 2106/2206 27015G25KT P6SM SCT150
Forecast period: 0600 to 1200 UTC 21 January 2019
Forecast type: FROM: standard forecast or significant change
Winds: from the W (270 degrees) at 17 MPH (15 knots; 7.7 m/s)
gusting to 29 MPH (25 knots; 12.9 m/s)
Visibility: 6 or more miles 10+ km)
Ceiling: at least 12,000 feet AGL
Clouds: scattered clouds at 15000 feet AGL
Weather: no significant weather forecast for this period
Text: FM211200 31015KT P6SM SCT030 BKN150
Forecast period: 1200 to 1900 UTC 21 January 2019
Forecast type: FROM: standard forecast or significant change
Winds: from the NW (310 degrees) at 17 MPH (15 knots; 7.7 m/s)
Visibility: 6 or more miles 10+ km)
Ceiling: 15000 feet AGL
Clouds: scattered clouds at 3000 feet AGL
broken clouds at 15000 feet AGL
Weather: no significant weather forecast for this period
Text: FM211900 28015G25KT P6SM SCT150
Forecast period: 1900 UTC 21 January 2019 to 0600 UTC 22 January 2019
Forecast type: FROM: standard forecast or significant change
Winds: from the W (280 degrees) at 17 MPH (15 knots; 7.7 m/s)
gusting to 29 MPH (25 knots; 12.9 m/s)
Visibility: 6 or more miles 10+ km)
Ceiling: at least 12,000 feet AGL
Clouds: scattered clouds at 15000 feet AGL
Weather: no significant weather forecast for this period